Time;durP1;ratioP1;P1;durP2;ratioP2;P2;SDS_P1;SDS_P2;PMS_P1;PMS_P2;Temp;Humidity;BMP_temperature;BMP_pressure;BME280_temperature;BME280_humidity;BME280_pressure;Samples;Min_cycle;Max_cycle;Signal;HPM_P1;HPM_P2
2022/04/29 00:00:34;;;;;;;2.93;2.73;;;8.30;99.90;;;;;;477778;249;28104;-73
2022/04/29 00:02:35;;;;;;;3.00;2.80;;;8.20;99.90;;;;;;477776;249;27758;-70
2022/04/29 00:04:37;;;;;;;3.03;2.83;;;8.30;99.90;;;;;;477770;249;27929;-70
2022/04/29 00:06:38;;;;;;;3.00;2.80;;;8.30;99.90;;;;;;477757;249;27963;-71
2022/04/29 00:08:39;;;;;;;2.83;2.63;;;8.20;99.90;;;;;;483807;246;28034;-71
2022/04/29 00:10:40;;;;;;;2.97;2.77;;;8.20;99.90;;;;;;483984;245;28036;-74
2022/04/29 00:12:43;;;;;;;3.20;3.00;;;8.20;99.90;;;;;;483813;245;27939;-71
2022/04/29 00:14:43;;;;;;;2.97;2.77;;;8.20;99.90;;;;;;483954;245;27669;-71
2022/04/29 00:16:44;;;;;;;2.80;2.70;;;8.00;99.90;;;;;;483936;242;27630;-70
2022/04/29 00:18:45;;;;;;;3.73;3.30;;;7.90;99.90;;;;;;483968;245;27952;-70
2022/04/29 00:20:49;;;;;;;3.27;3.07;;;7.80;99.90;;;;;;484004;245;28357;-72
2022/04/29 00:22:48;;;;;;;2.97;2.87;;;7.90;99.90;;;;;;483884;246;28234;-70
2022/04/29 00:24:49;;;;;;;3.00;2.80;;;7.90;99.90;;;;;;483985;245;28473;-70
2022/04/29 00:26:50;;;;;;;3.40;3.20;;;7.90;99.90;;;;;;483944;245;28489;-70
2022/04/29 00:28:52;;;;;;;3.20;3.00;;;7.90;99.90;;;;;;483934;245;28442;-70
2022/04/29 00:30:53;;;;;;;3.00;2.80;;;7.90;99.90;;;;;;483978;245;28682;-71
2022/04/29 00:32:54;;;;;;;3.20;3.00;;;7.90;99.90;;;;;;483971;245;27584;-70
2022/04/29 00:34:55;;;;;;;3.00;2.80;;;7.80;99.90;;;;;;483966;244;28082;-72
2022/04/29 00:36:57;;;;;;;3.00;2.80;;;7.80;99.90;;;;;;483943;244;27970;-70
2022/04/29 00:38:58;;;;;;;3.47;3.17;;;7.80;99.90;;;;;;483957;245;28068;-71
2022/04/29 00:40:59;;;;;;;3.23;3.03;;;7.80;99.90;;;;;;484013;244;27989;-72
2022/04/29 00:43:00;;;;;;;3.03;2.83;;;7.80;99.90;;;;;;483968;245;27596;-70
2022/04/29 00:45:02;;;;;;;3.27;3.07;;;7.80;99.90;;;;;;483964;245;28003;-72
2022/04/29 00:47:03;;;;;;;3.10;2.90;;;7.90;99.90;;;;;;483999;245;27919;-70
2022/04/29 00:49:04;;;;;;;3.20;3.00;;;7.90;99.90;;;;;;483994;245;27877;-71
2022/04/29 00:51:05;;;;;;;2.87;2.77;;;7.80;99.90;;;;;;483890;245;28163;-73
2022/04/29 00:53:07;;;;;;;3.17;2.97;;;7.70;99.90;;;;;;483950;244;27972;-70
2022/04/29 00:55:08;;;;;;;3.50;3.20;;;7.80;99.90;;;;;;483956;245;27877;-70
2022/04/29 00:57:09;;;;;;;3.23;3.03;;;7.70;99.90;;;;;;483944;245;28107;-70
2022/04/29 00:59:12;;;;;;;3.43;3.23;;;7.70;99.90;;;;;;483979;245;28508;-70
2022/04/29 01:01:12;;;;;;;3.07;2.87;;;7.80;99.90;;;;;;483898;246;28473;-74
2022/04/29 01:03:13;;;;;;;3.23;2.93;;;7.80;99.90;;;;;;483985;245;28443;-70
2022/04/29 01:05:14;;;;;;;3.60;3.40;;;7.70;99.90;;;;;;483999;245;28612;-71
2022/04/29 01:07:15;;;;;;;3.30;3.10;;;7.70;99.90;;;;;;483993;245;28568;-70
2022/04/29 01:09:17;;;;;;;3.40;3.10;;;7.50;99.90;;;;;;483999;245;28032;-70
2022/04/29 01:11:18;;;;;;;4.07;3.30;;;7.50;99.90;;;;;;483997;245;28113;-74
2022/04/29 01:13:19;;;;;;;3.17;3.00;;;7.40;99.90;;;;;;483969;244;28121;-70
2022/04/29 01:15:20;;;;;;;3.80;3.50;;;7.30;99.90;;;;;;484002;245;27859;-72
2022/04/29 01:17:22;;;;;;;3.67;3.40;;;7.20;99.90;;;;;;483958;245;28106;-70
2022/04/29 01:19:23;;;;;;;4.10;3.80;;;7.40;99.90;;;;;;483953;246;27935;-71
2022/04/29 01:21:24;;;;;;;3.60;3.40;;;7.30;99.90;;;;;;483979;245;28350;-69
2022/04/29 01:23:25;;;;;;;4.53;4.20;;;7.30;99.90;;;;;;483994;245;28130;-70
2022/04/29 01:25:27;;;;;;;4.20;3.90;;;7.40;99.90;;;;;;483985;245;28095;-70
2022/04/29 01:27:28;;;;;;;3.97;3.30;;;7.40;99.90;;;;;;483961;245;27964;-70
2022/04/29 01:29:29;;;;;;;4.07;3.67;;;7.40;99.90;;;;;;483979;245;28469;-70
2022/04/29 01:31:30;;;;;;;3.97;3.77;;;7.50;99.90;;;;;;483981;245;28078;-74
2022/04/29 01:33:32;;;;;;;4.33;4.03;;;7.60;99.90;;;;;;484000;244;27936;-70
2022/04/29 01:35:33;;;;;;;4.40;4.10;;;7.70;99.90;;;;;;483985;245;28002;-70
2022/04/29 01:37:34;;;;;;;3.93;3.53;;;7.60;99.90;;;;;;483905;245;28322;-70
2022/04/29 01:39:35;;;;;;;3.80;3.60;;;7.50;99.90;;;;;;483960;245;28500;-70
2022/04/29 01:41:37;;;;;;;3.63;3.43;;;7.50;99.90;;;;;;483958;245;28714;-71
2022/04/29 01:43:38;;;;;;;3.93;3.73;;;7.50;99.90;;;;;;483890;245;28679;-71
2022/04/29 01:45:39;;;;;;;3.40;3.20;;;7.40;99.90;;;;;;483996;245;28931;-72
2022/04/29 01:47:40;;;;;;;3.43;3.23;;;7.40;99.90;;;;;;483969;245;28611;-70
2022/04/29 01:49:42;;;;;;;4.83;3.40;;;7.30;99.90;;;;;;483970;245;27599;-70
2022/04/29 01:51:43;;;;;;;3.80;3.50;;;7.20;99.90;;;;;;483960;246;27967;-70
2022/04/29 01:53:45;;;;;;;3.73;3.50;;;7.20;99.90;;;;;;483994;244;27989;-70
2022/04/29 01:55:45;;;;;;;3.90;3.60;;;7.20;99.90;;;;;;483916;245;28391;-71
2022/04/29 01:57:47;;;;;;;3.90;3.60;;;7.30;99.90;;;;;;483966;244;27971;-71
2022/04/29 01:59:48;;;;;;;3.63;3.43;;;7.30;99.90;;;;;;483975;244;27640;-70
2022/04/29 02:01:49;;;;;;;3.20;3.00;;;7.40;99.90;;;;;;483967;245;28313;-70
2022/04/29 02:03:50;;;;;;;3.53;3.33;;;7.40;99.90;;;;;;484009;245;28037;-70
2022/04/29 02:05:52;;;;;;;3.10;3.00;;;7.40;99.90;;;;;;483989;245;28691;-74
2022/04/29 02:07:53;;;;;;;3.87;3.57;;;7.40;99.90;;;;;;484004;245;27955;-70
2022/04/29 02:09:56;;;;;;;3.20;3.00;;;7.30;99.90;;;;;;483816;244;28180;-70
2022/04/29 02:12:04;;;;;;;3.30;3.10;;;7.30;99.90;;;;;;483912;246;28400;-70
2022/04/29 02:14:05;;;;;;;3.43;3.20;;;7.30;99.90;;;;;;484018;245;27954;-70
2022/04/29 02:16:07;;;;;;;3.20;2.90;;;7.30;99.90;;;;;;483985;245;28168;-71
2022/04/29 02:18:08;;;;;;;3.33;3.13;;;7.20;99.90;;;;;;483990;245;28813;-74
2022/04/29 02:20:09;;;;;;;3.13;2.93;;;7.20;99.90;;;;;;484001;245;27964;-71
2022/04/29 02:22:10;;;;;;;3.00;2.87;;;7.20;99.90;;;;;;483965;245;28078;-71
2022/04/29 02:24:12;;;;;;;3.63;3.43;;;7.20;99.90;;;;;;483993;245;28767;-70
2022/04/29 02:26:13;;;;;;;3.53;3.23;;;7.10;99.90;;;;;;483940;240;28548;-70
2022/04/29 02:28:14;;;;;;;3.70;3.50;;;7.10;99.90;;;;;;484002;245;27997;-73
2022/04/29 02:30:15;;;;;;;3.60;3.30;;;7.10;99.90;;;;;;483989;245;29293;-70
2022/04/29 02:32:17;;;;;;;3.10;2.90;;;7.10;99.90;;;;;;483985;245;29341;-70
2022/04/29 02:34:18;;;;;;;3.10;2.90;;;7.10;99.90;;;;;;483963;245;28517;-70
2022/04/29 02:36:20;;;;;;;3.20;3.00;;;7.10;99.90;;;;;;483975;245;27529;-71
2022/04/29 02:38:20;;;;;;;3.35;3.15;;;7.10;99.90;;;;;;483973;245;28705;-70
2022/04/29 02:40:23;;;;;;;3.23;3.03;;;7.20;99.90;;;;;;483933;245;27488;-70
2022/04/29 02:42:23;;;;;;;3.13;2.93;;;7.10;99.90;;;;;;483946;246;28866;-71
2022/04/29 02:44:24;;;;;;;3.13;2.93;;;7.10;99.90;;;;;;483909;245;29053;-71
2022/04/29 02:46:25;;;;;;;3.03;2.83;;;7.00;99.90;;;;;;483968;245;27774;-71
2022/04/29 02:48:27;;;;;;;3.00;2.80;;;7.00;99.90;;;;;;483960;245;29254;-73
2022/04/29 02:50:28;;;;;;;3.50;3.13;;;7.00;99.90;;;;;;483966;245;28505;-70
2022/04/29 02:52:29;;;;;;;3.17;2.97;;;7.00;99.90;;;;;;483985;245;28359;-71
2022/04/29 02:54:30;;;;;;;3.10;2.90;;;7.00;99.90;;;;;;483954;245;29352;-70
2022/04/29 02:56:32;;;;;;;3.70;3.40;;;7.00;99.90;;;;;;483905;245;28705;-70
2022/04/29 02:58:33;;;;;;;3.30;3.10;;;6.90;99.90;;;;;;483994;245;27589;-71
2022/04/29 03:00:34;;;;;;;3.40;3.20;;;6.90;99.90;;;;;;483996;244;27644;-69
2022/04/29 03:02:36;;;;;;;3.43;3.23;;;6.80;99.90;;;;;;483973;245;27539;-71
2022/04/29 03:04:37;;;;;;;3.72;3.53;;;6.80;99.90;;;;;;483978;245;28836;-70
2022/04/29 03:06:38;;;;;;;3.60;3.30;;;6.80;99.90;;;;;;483951;245;27597;-70
2022/04/29 03:08:39;;;;;;;3.55;3.25;;;6.70;99.90;;;;;;483912;245;28464;-74
2022/04/29 03:10:40;;;;;;;3.70;3.50;;;6.80;99.90;;;;;;483878;245;28065;-70
2022/04/29 03:12:42;;;;;;;3.30;3.10;;;6.80;99.90;;;;;;483893;245;28541;-71
2022/04/29 03:14:43;;;;;;;3.25;3.05;;;6.70;99.90;;;;;;483936;245;28996;-70
2022/04/29 03:16:44;;;;;;;3.60;3.40;;;6.80;99.90;;;;;;483935;245;27662;-70
2022/04/29 03:18:45;;;;;;;2.95;2.75;;;6.70;99.90;;;;;;483961;245;28766;-70
2022/04/29 03:20:47;;;;;;;3.60;3.35;;;6.70;99.90;;;;;;483969;244;27501;-70
2022/04/29 03:22:48;;;;;;;3.57;3.30;;;6.70;99.90;;;;;;483932;245;27529;-72
2022/04/29 03:24:49;;;;;;;3.30;3.10;;;6.70;99.90;;;;;;483907;245;28831;-70
2022/04/29 03:26:50;;;;;;;3.40;3.20;;;6.70;99.90;;;;;;483930;245;27519;-71
2022/04/29 03:28:52;;;;;;;3.20;3.00;;;6.70;99.90;;;;;;484006;245;28190;-70
2022/04/29 03:30:53;;;;;;;3.28;3.08;;;6.70;99.90;;;;;;484031;245;27378;-70
2022/04/29 03:32:54;;;;;;;3.40;3.20;;;6.60;99.90;;;;;;483992;245;27437;-70
2022/04/29 03:34:56;;;;;;;3.50;3.30;;;6.60;99.90;;;;;;483987;245;27480;-70
2022/04/29 03:36:57;;;;;;;3.65;3.37;;;6.50;99.90;;;;;;483948;244;28750;-70
2022/04/29 03:38:58;;;;;;;3.62;3.30;;;6.50;99.90;;;;;;483946;245;27889;-72
2022/04/29 03:40:59;;;;;;;3.50;3.30;;;6.50;99.90;;;;;;483977;245;27557;-70
2022/04/29 03:43:01;;;;;;;3.03;2.83;;;6.50;99.90;;;;;;483969;245;28287;-71
2022/04/29 03:45:02;;;;;;;3.10;2.90;;;6.50;99.90;;;;;;483975;245;29294;-70
2022/04/29 03:47:03;;;;;;;4.28;3.97;;;6.50;99.90;;;;;;483941;245;29351;-70
2022/04/29 03:51:24;;;;;;;3.70;3.50;;;6.50;99.90;;;;;;483980;246;27504;-70
2022/04/29 03:53:25;;;;;;;3.60;3.30;;;6.50;99.90;;;;;;483956;245;27433;-70
2022/04/29 03:55:26;;;;;;;4.05;3.70;;;6.40;99.90;;;;;;483983;245;27433;-70
2022/04/29 03:57:28;;;;;;;4.87;4.57;;;6.40;99.90;;;;;;483972;245;27413;-70
2022/04/29 03:59:29;;;;;;;4.53;4.22;;;6.40;99.90;;;;;;483999;245;28084;-70
2022/04/29 04:01:31;;;;;;;3.62;3.42;;;6.40;99.90;;;;;;483970;245;27915;-70
2022/04/29 04:03:31;;;;;;;3.30;3.10;;;6.30;99.90;;;;;;483872;245;27525;-70
2022/04/29 04:05:33;;;;;;;3.72;3.42;;;6.30;99.90;;;;;;483966;245;28961;-70
2022/04/29 04:07:34;;;;;;;3.87;3.62;;;6.30;99.90;;;;;;483950;245;27563;-71
2022/04/29 04:09:35;;;;;;;3.90;3.70;;;6.30;99.90;;;;;;483946;245;27647;-73
2022/04/29 04:11:37;;;;;;;3.80;3.50;;;6.20;99.90;;;;;;483935;245;27477;-70
2022/04/29 04:13:38;;;;;;;3.75;3.45;;;6.20;99.90;;;;;;483973;245;27429;-71
2022/04/29 04:15:39;;;;;;;3.72;3.53;;;6.20;99.90;;;;;;483988;245;28677;-70
2022/04/29 04:17:40;;;;;;;4.15;3.85;;;6.20;99.90;;;;;;483961;245;27904;-70
2022/04/29 04:19:41;;;;;;;3.72;3.42;;;6.20;99.90;;;;;;483974;245;27611;-72
2022/04/29 04:21:43;;;;;;;3.95;3.60;;;6.20;99.90;;;;;;483989;245;27518;-70
2022/04/29 04:23:44;;;;;;;4.28;3.87;;;6.20;99.90;;;;;;483978;245;27540;-70
2022/04/29 04:25:45;;;;;;;3.58;3.33;;;6.20;99.90;;;;;;483978;245;27608;-69
2022/04/29 04:27:47;;;;;;;3.30;3.10;;;6.20;99.90;;;;;;484007;245;27568;-70
2022/04/29 04:29:48;;;;;;;3.42;3.22;;;6.20;99.90;;;;;;483983;245;27999;-72
2022/04/29 04:31:49;;;;;;;3.20;3.00;;;6.20;99.90;;;;;;483999;245;27962;-70
2022/04/29 04:33:50;;;;;;;3.83;3.05;;;6.30;99.90;;;;;;483993;245;27526;-70
2022/04/29 04:35:52;;;;;;;3.35;3.15;;;6.20;99.90;;;;;;483960;245;27572;-70
2022/04/29 04:37:53;;;;;;;3.53;3.33;;;6.30;99.90;;;;;;483917;245;27497;-70
2022/04/29 04:39:54;;;;;;;4.12;3.83;;;6.30;99.90;;;;;;483940;245;27617;-70
2022/04/29 04:41:55;;;;;;;3.25;3.05;;;6.30;99.90;;;;;;483991;245;27490;-70
2022/04/29 04:43:57;;;;;;;4.05;3.80;;;6.30;99.90;;;;;;483917;245;28005;-72
2022/04/29 04:45:58;;;;;;;3.80;3.53;;;6.30;99.90;;;;;;483835;246;28085;-71
2022/04/29 04:47:59;;;;;;;3.30;3.10;;;6.30;99.90;;;;;;483864;245;27587;-70
2022/04/29 04:50:00;;;;;;;4.20;3.80;;;6.40;99.90;;;;;;483828;244;27533;-70
2022/04/29 04:52:02;;;;;;;4.25;4.00;;;6.40;99.90;;;;;;483761;244;27513;-70
2022/04/29 04:54:03;;;;;;;3.97;3.78;;;6.40;99.90;;;;;;483876;245;27610;-70
2022/04/29 04:56:04;;;;;;;3.83;3.63;;;6.40;99.90;;;;;;483991;245;27531;-73
2022/04/29 04:58:05;;;;;;;4.55;4.25;;;6.50;99.90;;;;;;483979;245;29321;-70
2022/04/29 05:00:07;;;;;;;4.30;4.00;;;6.50;99.90;;;;;;483987;245;28072;-71
2022/04/29 05:02:08;;;;;;;4.60;4.20;;;6.50;99.90;;;;;;484002;244;27509;-70
2022/04/29 05:04:09;;;;;;;4.20;3.90;;;6.50;99.90;;;;;;483989;245;27500;-71
2022/04/29 05:06:10;;;;;;;4.72;4.32;;;6.60;99.90;;;;;;484008;245;27556;-74
2022/04/29 05:08:12;;;;;;;3.93;3.63;;;6.60;99.90;;;;;;484002;244;27592;-70
2022/04/29 05:10:13;;;;;;;3.92;3.65;;;6.60;99.90;;;;;;484002;245;28007;-70
2022/04/29 05:12:14;;;;;;;4.10;3.80;;;6.60;99.90;;;;;;483995;245;28720;-70
2022/04/29 05:14:15;;;;;;;4.10;3.73;;;6.70;99.90;;;;;;484002;245;27987;-70
2022/04/29 05:16:17;;;;;;;3.65;3.37;;;6.70;99.90;;;;;;483993;245;29264;-72
2022/04/29 05:18:18;;;;;;;4.50;4.20;;;6.80;99.90;;;;;;483986;244;27508;-70
2022/04/29 05:20:19;;;;;;;4.87;4.50;;;6.90;99.90;;;;;;483992;245;28459;-70
2022/04/29 05:22:20;;;;;;;4.10;3.90;;;6.90;99.90;;;;;;483895;244;27589;-70
2022/04/29 05:24:22;;;;;;;4.07;3.80;;;6.90;99.90;;;;;;483994;244;27508;-70
2022/04/29 05:26:23;;;;;;;3.57;3.37;;;7.00;99.90;;;;;;484000;245;27637;-71
2022/04/29 05:28:24;;;;;;;4.00;3.80;;;7.10;99.90;;;;;;483996;245;28090;-70
2022/04/29 05:30:25;;;;;;;4.62;4.30;;;7.10;99.90;;;;;;483986;245;28925;-70
2022/04/29 05:32:29;;;;;;;4.27;3.97;;;7.10;99.90;;;;;;483983;245;27949;-70
2022/04/29 05:34:28;;;;;;;4.20;3.90;;;7.10;99.90;;;;;;483909;244;28293;-71
2022/04/29 05:36:29;;;;;;;3.77;3.53;;;7.10;99.90;;;;;;483985;245;29443;-72
2022/04/29 05:43:09;;;;;;;4.40;4.10;;;7.10;99.90;;;;;;483977;245;28809;-70
2022/04/29 05:45:10;;;;;;;4.57;4.27;;;7.20;99.90;;;;;;483991;244;28022;-70
2022/04/29 05:47:12;;;;;;;4.90;4.37;;;7.20;99.90;;;;;;483974;245;27855;-72
2022/04/29 05:49:13;;;;;;;4.80;4.50;;;7.20;99.90;;;;;;483978;245;28338;-70
2022/04/29 05:51:14;;;;;;;4.70;4.30;;;7.30;99.90;;;;;;483957;245;27896;-71
2022/04/29 05:53:15;;;;;;;4.47;4.13;;;7.30;99.90;;;;;;483990;245;27876;-70
2022/04/29 05:55:17;;;;;;;4.77;4.37;;;7.40;99.90;;;;;;483991;245;27741;-70
2022/04/29 05:57:18;;;;;;;5.23;4.73;;;7.50;99.90;;;;;;483958;245;27922;-71
2022/04/29 05:59:19;;;;;;;4.30;4.00;;;7.60;99.90;;;;;;483964;245;28081;-70
2022/04/29 06:01:21;;;;;;;4.80;3.93;;;7.80;99.90;;;;;;483992;245;28170;-70
2022/04/29 06:03:22;;;;;;;4.73;4.43;;;7.90;99.90;;;;;;483999;245;28373;-74
2022/04/29 06:05:24;;;;;;;4.97;4.57;;;8.10;99.90;;;;;;483974;245;27691;-70
2022/04/29 06:07:24;;;;;;;4.70;4.40;;;8.30;99.90;;;;;;483868;245;28454;-71
2022/04/29 06:09:25;;;;;;;5.00;4.70;;;8.50;99.90;;;;;;483930;245;28432;-71
2022/04/29 06:11:27;;;;;;;5.00;4.70;;;8.60;99.90;;;;;;483963;245;28471;-71
2022/04/29 06:13:28;;;;;;;5.00;4.70;;;8.60;99.90;;;;;;482069;245;28579;-71
2022/04/29 06:15:29;;;;;;;4.30;4.00;;;8.80;99.90;;;;;;477797;249;28415;-70
2022/04/29 06:17:30;;;;;;;4.50;4.20;;;8.90;99.90;;;;;;477775;249;28239;-72
2022/04/29 06:19:32;;;;;;;4.70;4.30;;;8.90;99.90;;;;;;477787;249;27532;-70
2022/04/29 06:21:33;;;;;;;5.10;4.70;;;8.90;99.90;;;;;;477836;249;27989;-71
2022/04/29 06:23:34;;;;;;;6.00;4.17;;;8.90;99.90;;;;;;477852;248;27997;-73
2022/04/29 06:25:35;;;;;;;4.30;4.00;;;8.90;99.90;;;;;;477809;249;27620;-72
2022/04/29 06:27:37;;;;;;;5.87;4.70;;;9.10;99.90;;;;;;477857;248;28017;-71
2022/04/29 06:29:38;;;;;;;4.43;4.13;;;9.20;99.90;;;;;;477860;249;27895;-71
2022/04/29 06:31:39;;;;;;;3.83;3.57;;;9.30;99.90;;;;;;477854;249;27886;-71
2022/04/29 06:33:40;;;;;;;4.13;3.77;;;9.50;99.90;;;;;;477808;249;27903;-74
2022/04/29 06:35:42;;;;;;;4.30;3.90;;;9.70;99.90;;;;;;477794;249;28013;-71
2022/04/29 06:37:43;;;;;;;4.03;3.73;;;9.80;99.90;;;;;;477776;249;27820;-71
2022/04/29 06:39:44;;;;;;;3.93;3.63;;;10.10;99.90;;;;;;477790;249;27654;-71
2022/04/29 06:41:45;;;;;;;4.30;3.90;;;10.30;99.90;;;;;;477790;248;27880;-71
2022/04/29 06:43:47;;;;;;;4.90;4.50;;;10.40;99.90;;;;;;477811;249;28196;-73
2022/04/29 06:45:48;;;;;;;3.60;3.40;;;10.60;99.90;;;;;;477788;249;28419;-71
2022/04/29 06:47:49;;;;;;;3.77;3.47;;;10.70;99.90;;;;;;477801;249;28398;-71
2022/04/29 06:49:51;;;;;;;4.50;4.13;;;10.80;99.90;;;;;;477799;249;28456;-71
2022/04/29 06:51:52;;;;;;;4.33;4.03;;;10.90;99.90;;;;;;477810;249;27982;-72
2022/04/29 06:53:53;;;;;;;4.00;3.70;;;11.00;99.90;;;;;;477786;249;27798;-73
2022/04/29 06:55:54;;;;;;;4.30;4.00;;;11.10;99.90;;;;;;477778;249;27962;-71
2022/04/29 06:57:55;;;;;;;4.40;4.10;;;11.10;99.90;;;;;;477789;249;28243;-70
2022/04/29 06:59:57;;;;;;;4.40;4.10;;;11.20;99.90;;;;;;477775;249;28211;-71
2022/04/29 07:01:58;;;;;;;4.60;4.20;;;11.30;99.90;;;;;;477766;249;28116;-71
2022/04/29 07:03:59;;;;;;;4.43;4.07;;;11.30;99.90;;;;;;477806;249;28135;-72
2022/04/29 07:06:01;;;;;;;4.57;4.27;;;11.40;99.90;;;;;;477776;249;28343;-71
2022/04/29 07:08:03;;;;;;;4.03;3.73;;;11.40;99.90;;;;;;477757;248;28489;-71
2022/04/29 07:10:03;;;;;;;4.77;4.37;;;11.40;99.90;;;;;;477789;249;28580;-72
2022/04/29 07:12:04;;;;;;;4.70;4.40;;;11.50;99.90;;;;;;477817;249;28568;-71
2022/04/29 07:14:06;;;;;;;3.80;3.60;;;11.60;99.90;;;;;;477772;247;28677;-71
2022/04/29 07:16:07;;;;;;;4.80;4.40;;;11.60;99.90;;;;;;477737;249;28303;-71
2022/04/29 07:18:08;;;;;;;4.87;4.43;;;11.70;99.90;;;;;;477766;248;28540;-71
2022/04/29 07:20:09;;;;;;;4.67;4.37;;;11.80;99.90;;;;;;477778;249;28469;-73
2022/04/29 07:22:10;;;;;;;4.40;4.10;;;11.90;99.90;;;;;;477790;249;28249;-71
2022/04/29 07:24:12;;;;;;;4.33;3.93;;;12.00;99.90;;;;;;477771;249;28529;-72
2022/04/29 07:26:13;;;;;;;4.10;3.80;;;12.10;99.90;;;;;;477774;249;28759;-72
2022/04/29 07:28:14;;;;;;;4.10;3.80;;;12.20;99.90;;;;;;477775;249;28873;-71
2022/04/29 07:30:15;;;;;;;3.80;3.50;;;12.30;99.90;;;;;;477771;249;28944;-74
2022/04/29 07:32:17;;;;;;;3.90;3.60;;;12.40;99.90;;;;;;477781;249;28593;-71
2022/04/29 07:34:18;;;;;;;3.77;3.47;;;12.50;99.90;;;;;;477762;249;28803;-71
2022/04/29 07:43:18;;;;;;;3.90;3.60;;;13.00;99.90;;;;;;477748;249;28240;-72
2022/04/29 07:45:20;;;;;;;4.33;3.90;;;13.00;99.90;;;;;;477758;249;28124;-71
2022/04/29 07:47:21;;;;;;;4.80;4.40;;;13.10;99.90;;;;;;477746;248;28158;-71
2022/04/29 07:49:22;;;;;;;5.70;5.00;;;13.30;99.90;;;;;;477781;248;28658;-75
2022/04/29 07:51:23;;;;;;;5.20;4.80;;;13.40;99.90;;;;;;477794;249;28859;-71
2022/04/29 07:53:24;;;;;;;4.80;4.30;;;13.50;99.90;;;;;;477690;248;28911;-72
2022/04/29 07:55:26;;;;;;;4.93;4.63;;;13.60;99.90;;;;;;477781;249;28897;-71
2022/04/29 07:57:27;;;;;;;4.50;4.20;;;13.70;99.90;;;;;;477815;249;28206;-72
2022/04/29 07:59:28;;;;;;;4.30;4.00;;;13.80;99.90;;;;;;477803;248;28560;-73
2022/04/29 08:01:30;;;;;;;4.27;3.97;;;14.00;99.90;;;;;;477810;249;28276;-71
2022/04/29 08:03:31;;;;;;;5.73;5.30;;;14.30;99.90;;;;;;477772;249;28493;-72
2022/04/29 08:05:32;;;;;;;5.63;4.70;;;14.40;99.90;;;;;;477787;249;28888;-72
2022/04/29 08:07:33;;;;;;;4.50;4.10;;;14.50;99.90;;;;;;477792;249;28831;-71
2022/04/29 08:09:35;;;;;;;6.17;5.10;;;14.50;99.90;;;;;;477806;249;28782;-71
2022/04/29 08:11:37;;;;;;;6.33;5.73;;;14.60;99.90;;;;;;477803;248;28749;-72
2022/04/29 08:13:37;;;;;;;4.90;4.50;;;14.80;99.90;;;;;;477708;249;29279;-72
2022/04/29 08:15:38;;;;;;;5.63;4.33;;;14.80;99.90;;;;;;477805;249;29141;-71
2022/04/29 08:17:40;;;;;;;7.80;5.33;;;14.90;99.90;;;;;;477795;249;28743;-71
2022/04/29 08:19:41;;;;;;;6.10;5.50;;;15.00;99.90;;;;;;477802;249;29379;-73
2022/04/29 08:21:42;;;;;;;5.20;4.70;;;15.00;99.90;;;;;;477811;249;29263;-72
2022/04/29 08:23:43;;;;;;;7.10;6.00;;;15.10;99.90;;;;;;477809;249;29344;-71
2022/04/29 08:25:45;;;;;;;6.20;5.60;;;15.10;99.90;;;;;;477804;249;28736;-72
2022/04/29 08:27:46;;;;;;;6.33;5.67;;;15.10;99.90;;;;;;477802;249;28830;-71
2022/04/29 08:29:47;;;;;;;4.97;4.50;;;15.20;99.90;;;;;;477817;249;28894;-71
2022/04/29 08:31:48;;;;;;;4.37;3.97;;;15.30;99.90;;;;;;477803;248;28743;-72
2022/04/29 08:33:50;;;;;;;4.40;4.00;;;15.40;99.90;;;;;;477742;249;28858;-72
2022/04/29 08:35:51;;;;;;;4.53;4.13;;;15.40;99.90;;;;;;477796;249;28829;-72
2022/04/29 08:37:54;;;;;;;4.93;4.43;;;15.50;99.90;;;;;;477806;249;28898;-72
2022/04/29 08:39:53;;;;;;;7.93;4.43;;;15.60;99.90;;;;;;477702;249;28877;-75
2022/04/29 08:41:55;;;;;;;4.80;4.40;;;15.60;99.90;;;;;;477790;249;28753;-72
2022/04/29 08:43:57;;;;;;;4.23;3.93;;;15.80;99.90;;;;;;477822;249;29294;-72
2022/04/29 08:45:57;;;;;;;4.67;3.60;;;15.80;99.90;;;;;;477761;249;29190;-72
2022/04/29 08:47:59;;;;;;;5.00;4.50;;;15.90;99.90;;;;;;477789;247;29210;-72
2022/04/29 08:50:00;;;;;;;4.10;3.80;;;16.00;99.90;;;;;;477751;249;28797;-75
2022/04/29 08:52:04;;;;;;;4.47;4.07;;;16.10;99.90;;;;;;477803;249;28739;-72
2022/04/29 08:54:05;;;;;;;4.80;4.37;;;16.10;99.90;;;;;;477804;249;28825;-71
2022/04/29 08:58:38;;;;;;;4.30;4.00;;;16.20;99.90;;;;;;477803;242;29254;-73
2022/04/29 09:00:41;;;;;;;4.53;3.70;;;16.20;99.90;;;;;;477768;249;28765;-71
2022/04/29 09:02:40;;;;;;;4.37;3.97;;;16.20;99.90;;;;;;477682;249;28782;-72
2022/04/29 09:04:42;;;;;;;4.10;3.73;;;16.30;99.90;;;;;;477787;248;28838;-72
2022/04/29 09:06:43;;;;;;;3.93;3.63;;;16.40;99.90;;;;;;477761;248;28750;-72
2022/04/29 09:08:44;;;;;;;4.37;4.00;;;16.50;99.90;;;;;;477807;249;28769;-74
2022/04/29 09:10:45;;;;;;;4.50;4.10;;;16.50;99.90;;;;;;477793;249;28827;-72
2022/04/29 09:12:47;;;;;;;4.40;4.00;;;16.50;99.90;;;;;;477785;249;28797;-73
2022/04/29 09:14:48;;;;;;;5.73;4.33;;;16.50;99.90;;;;;;477793;249;28744;-71
2022/04/29 09:16:49;;;;;;;5.33;4.50;;;16.40;99.90;;;;;;477783;249;29116;-72
2022/04/29 09:18:50;;;;;;;4.87;4.20;;;16.40;99.90;;;;;;477815;249;29269;-72
2022/04/29 09:20:52;;;;;;;5.83;4.70;;;16.50;99.90;;;;;;477783;249;29284;-72
2022/04/29 09:22:53;;;;;;;4.63;4.23;;;16.30;99.90;;;;;;477782;249;29259;-73
2022/04/29 09:24:54;;;;;;;5.47;4.40;;;16.40;99.90;;;;;;477773;249;28743;-72
2022/04/29 09:26:56;;;;;;;4.50;4.10;;;16.30;99.80;;;;;;477789;249;28826;-71
2022/04/29 09:28:57;;;;;;;4.47;4.07;;;16.30;99.00;;;;;;477808;249;28841;-71
2022/04/29 09:30:58;;;;;;;7.50;4.73;;;16.30;99.90;;;;;;477792;249;28813;-72
2022/04/29 09:32:59;;;;;;;12.73;4.57;;;16.30;98.60;;;;;;477790;249;28798;-72
2022/04/29 09:35:01;;;;;;;4.50;4.10;;;16.20;99.70;;;;;;477790;247;28843;-71
2022/04/29 09:37:02;;;;;;;5.53;4.47;;;16.30;99.80;;;;;;477782;249;28798;-72
2022/04/29 09:41:23;;;;;;;5.03;3.50;;;16.40;98.70;;;;;;477739;249;28873;-71
2022/04/29 09:43:24;;;;;;;3.30;3.10;;;16.50;98.70;;;;;;477793;249;28773;-72
2022/04/29 09:45:26;;;;;;;4.27;3.77;;;16.70;99.60;;;;;;477797;249;28746;-72
2022/04/29 09:47:26;;;;;;;5.13;4.10;;;16.70;96.80;;;;;;477801;249;28832;-72
2022/04/29 09:49:30;;;;;;;4.33;3.70;;;16.50;96.20;;;;;;477798;249;28878;-72
2022/04/29 09:51:32;;;;;;;5.70;4.07;;;16.40;96.00;;;;;;477785;248;29119;-73
2022/04/29 09:53:34;;;;;;;4.30;3.90;;;16.40;96.90;;;;;;477805;249;28818;-71
2022/04/29 09:55:34;;;;;;;3.93;3.60;;;16.60;96.00;;;;;;477733;249;28870;-72
2022/04/29 09:57:35;;;;;;;4.50;4.20;;;16.80;97.20;;;;;;477794;249;28992;-75
2022/04/29 09:59:37;;;;;;;3.97;3.50;;;17.00;97.40;;;;;;477777;249;28775;-72
2022/04/29 10:01:38;;;;;;;3.90;3.70;;;17.10;96.40;;;;;;477785;249;28791;-73
2022/04/29 10:03:39;;;;;;;3.80;3.50;;;17.20;96.30;;;;;;477769;248;29214;-72
2022/04/29 10:05:40;;;;;;;4.00;3.43;;;17.60;99.80;;;;;;477786;249;29278;-72
2022/04/29 10:07:42;;;;;;;4.43;4.03;;;17.20;94.30;;;;;;477789;249;29332;-73
2022/04/29 10:09:43;;;;;;;3.30;3.00;;;17.20;94.80;;;;;;477807;249;29293;-71
2022/04/29 10:11:44;;;;;;;3.47;3.10;;;17.40;96.50;;;;;;477797;249;28777;-72
2022/04/29 10:13:45;;;;;;;3.70;3.50;;;17.70;98.60;;;;;;477791;249;28826;-72
2022/04/29 10:15:47;;;;;;;4.20;3.77;;;17.90;97.50;;;;;;477772;249;28858;-72
2022/04/29 10:22:27;;;;;;;3.33;3.03;;;17.00;93.90;;;;;;477784;249;28755;-72
2022/04/29 10:24:28;;;;;;;3.53;3.23;;;16.90;93.30;;;;;;477744;249;28812;-73
2022/04/29 10:26:30;;;;;;;6.67;3.77;;;17.00;93.40;;;;;;477778;249;28839;-71
2022/04/29 10:28:31;;;;;;;4.03;3.30;;;17.10;94.60;;;;;;477768;243;28802;-72
2022/04/29 10:30:32;;;;;;;4.50;3.43;;;17.20;94.10;;;;;;477766;249;28778;-72
2022/04/29 10:32:33;;;;;;;4.00;3.00;;;17.00;91.90;;;;;;477793;249;28750;-72
2022/04/29 10:34:35;;;;;;;3.63;3.30;;;16.80;92.50;;;;;;477777;249;28873;-73
2022/04/29 10:36:37;;;;;;;3.57;3.20;;;16.90;92.40;;;;;;477781;249;28747;-72
2022/04/29 10:38:40;;;;;;;3.30;3.07;;;16.90;92.30;;;;;;477741;249;29311;-72
2022/04/29 10:40:41;;;;;;;2.67;2.53;;;17.10;94.10;;;;;;477765;249;28794;-72
2022/04/29 10:42:42;;;;;;;2.80;2.60;;;17.40;94.30;;;;;;477790;249;28784;-71
2022/04/29 10:44:44;;;;;;;3.37;3.07;;;17.50;92.90;;;;;;477733;249;28907;-72
2022/04/29 10:46:45;;;;;;;6.27;3.70;;;17.10;91.90;;;;;;477779;249;28782;-74
2022/04/29 10:48:46;;;;;;;4.17;3.60;;;16.90;92.20;;;;;;477789;249;28834;-71
2022/04/29 10:50:47;;;;;;;3.40;3.10;;;16.90;92.20;;;;;;477766;248;28778;-72
2022/04/29 10:52:49;;;;;;;3.40;3.20;;;17.00;92.70;;;;;;477785;248;28845;-71
2022/04/29 10:54:50;;;;;;;8.00;3.90;;;17.00;92.30;;;;;;477775;249;28791;-72
2022/04/29 10:56:51;;;;;;;4.43;3.50;;;17.00;92.00;;;;;;477649;249;29210;-72
2022/04/29 10:58:52;;;;;;;3.47;3.10;;;17.20;92.10;;;;;;477767;249;29361;-71